Terminal Aerodrome Forecast
Issued by NWS Shreveport, LA

Home | Current Version | Previous Version | Text Only | Print | Product List | Glossary On
Versions: 1 2 3 4 5 6 7 8 9 10 11 12
000
FTUS44 KSHV 302326
TAFGGG
TAF
KGGG 302326Z 3100/3124 04006KT P6SM VCTS SCT070CB BKN140 BKN250
      TEMPO 3100/3103 VRB15G30KT 3SM TSRA BR BKN040CB
     FM310500 06006KT P6SM FEW070 SCT140 BKN250
     FM311600 06010G18KT P6SM SCT120 SCT250=

USA.gov is the U.S. government's official web portal to all federal, state and local government web resources and services.